SHR weather

Sheridan County Airport
Sheridan, Wyoming, United States

Public forecast

Using degrees Fahrenheit for public forecast. Weather courtesy of forecast.io.

Current aviation weather report (METAR) for Sheridan County Airport

Retrieved 2019/12/07 23:53 UTC (20 minutes ago):

KSHR 072353Z AUTO 09004KT 10SM BKN110 10/M05 A2976 RMK AO2 SLP092 T01001050 10122 20006 53002

Aviation forecast (TAF) for Sheridan County Airport

Retrieved 2019-12-08 00:34 UTC (0 seconds ago):

TAF KSHR 072331Z 0800/0824 11004KT P6SM FEW120 WS020/27045KT FM080200 VRB05KT P6SM BKN100 FM081500 VRB05KT P6SM VCSH BKN050 FM081900 32012KT 5SM -RASN BR OVC020